Decoded Metar for KEEO (MEEKER in CO, USA) (IATA:EEO) | Meteo·Mobile Aviation Weather
aviador You're here:

KEEO Decoded Metar

MEEKER in CO, USA
Report Time2018-09-23 11:53:00
UTC Time2018-09-23 12:27:09
Flight Rules vfr VFR
WindCalm
Visibility9999 m
Phenomena:N/A
Clouds:Scattered 120 Hf
Expected CloudBase > 4,800 ft AGL from Temp-Dew spread
CeilingNone
Temp08°C (ISA +6)
Dew Point-4°C (43% RH)
AAT5.5°C
QNH1022 hPa
Density Alt6,759 ft
Elevation6,332 ft
Report Wrong Elevation
Raw Report
KEEO 231153Z AUTO 00000KT 10SM SCT120 08/M04 A3017 RMK AO2 SLP142
T00781044 10106 20056 55004 $=

Extra information for KEEO:More info

Metar Taf Metar & Taf Last 4 Metars F.Rules Stats Wind Profile Meteogram Temp Stats Airport Information Weather charts Add Link Nearby VenuesMetar ALERT Operation Metar Decoded Social comments

AIRNAV info for KEEO